sensor_id;sensor_type;location;lat;lon;timestamp;temperature;humidity
73875;HTU21D;62209;47.568;7.558;2023-08-06T00:11:32;17.84;85.05
73875;HTU21D;62209;47.568;7.558;2023-08-06T00:26:38;17.74;85.22
73875;HTU21D;62209;47.568;7.558;2023-08-06T00:41:44;17.70;85.58
73875;HTU21D;62209;47.568;7.558;2023-08-06T00:56:50;17.59;86.02
73875;HTU21D;62209;47.568;7.558;2023-08-06T01:11:59;17.58;85.98
73875;HTU21D;62209;47.568;7.558;2023-08-06T01:27:11;17.41;86.36
73875;HTU21D;62209;47.568;7.558;2023-08-06T01:42:23;17.09;87.67
73875;HTU21D;62209;47.568;7.558;2023-08-06T01:57:29;17.06;88.16
73875;HTU21D;62209;47.568;7.558;2023-08-06T02:12:36;17.24;87.77
73875;HTU21D;62209;47.568;7.558;2023-08-06T02:27:42;17.21;88.91
73875;HTU21D;62209;47.568;7.558;2023-08-06T02:42:48;16.65;89.70
73875;HTU21D;62209;47.568;7.558;2023-08-06T02:57:55;14.29;97.29
73875;HTU21D;62209;47.568;7.558;2023-08-06T03:13:01;13.34;104.23
73875;HTU21D;62209;47.568;7.558;2023-08-06T03:28:07;13.23;105.50
73875;HTU21D;62209;47.568;7.558;2023-08-06T03:43:14;13.12;105.46
73875;HTU21D;62209;47.568;7.558;2023-08-06T03:58:20;13.06;106.63
73875;HTU21D;62209;47.568;7.558;2023-08-06T04:13:26;13.06;106.21
73875;HTU21D;62209;47.568;7.558;2023-08-06T04:28:32;13.25;105.32
73875;HTU21D;62209;47.568;7.558;2023-08-06T04:43:39;13.40;102.47
73875;HTU21D;62209;47.568;7.558;2023-08-06T04:58:45;13.45;102.74
73875;HTU21D;62209;47.568;7.558;2023-08-06T05:13:51;13.45;102.86
73875;HTU21D;62209;47.568;7.558;2023-08-06T05:28:58;13.33;104.60
73875;HTU21D;62209;47.568;7.558;2023-08-06T05:44:04;13.52;103.50
73875;HTU21D;62209;47.568;7.558;2023-08-06T05:59:11;13.59;102.31
73875;HTU21D;62209;47.568;7.558;2023-08-06T06:14:17;13.66;104.05
73875;HTU21D;62209;47.568;7.558;2023-08-06T06:29:23;13.68;103.53
73875;HTU21D;62209;47.568;7.558;2023-08-06T06:44:30;13.63;103.60
73875;HTU21D;62209;47.568;7.558;2023-08-06T06:59:36;13.41;104.96
73875;HTU21D;62209;47.568;7.558;2023-08-06T07:14:43;13.54;105.14
73875;HTU21D;62209;47.568;7.558;2023-08-06T07:29:49;13.52;105.76
73875;HTU21D;62209;47.568;7.558;2023-08-06T07:44:56;14.05;103.97
73875;HTU21D;62209;47.568;7.558;2023-08-06T08:00:03;14.30;102.59
73875;HTU21D;62209;47.568;7.558;2023-08-06T08:15:11;14.62;101.47
73875;HTU21D;62209;47.568;7.558;2023-08-06T08:30:17;15.10;99.06
73875;HTU21D;62209;47.568;7.558;2023-08-06T08:45:23;14.81;97.51
73875;HTU21D;62209;47.568;7.558;2023-08-06T09:00:34;14.78;99.58
73875;HTU21D;62209;47.568;7.558;2023-08-06T09:15:41;15.62;97.41
73875;HTU21D;62209;47.568;7.558;2023-08-06T09:30:48;15.13;98.67
73875;HTU21D;62209;47.568;7.558;2023-08-06T09:45:55;14.96;97.74
73875;HTU21D;62209;47.568;7.558;2023-08-06T10:01:01;15.21;96.37
73875;HTU21D;62209;47.568;7.558;2023-08-06T10:16:09;15.25;95.10
73875;HTU21D;62209;47.568;7.558;2023-08-06T10:31:15;15.49;94.69
73875;HTU21D;62209;47.568;7.558;2023-08-06T10:46:26;15.60;92.38
73875;HTU21D;62209;47.568;7.558;2023-08-06T11:01:33;15.70;92.38
73875;HTU21D;62209;47.568;7.558;2023-08-06T11:16:40;16.32;90.45
73875;HTU21D;62209;47.568;7.558;2023-08-06T11:31:47;17.00;88.86
73875;HTU21D;62209;47.568;7.558;2023-08-06T11:46:53;18.14;85.82
73875;HTU21D;62209;47.568;7.558;2023-08-06T12:02:03;16.05;88.51
73875;HTU21D;62209;47.568;7.558;2023-08-06T12:17:10;16.04;90.28
73875;HTU21D;62209;47.568;7.558;2023-08-06T12:32:16;15.72;91.30
73875;HTU21D;62209;47.568;7.558;2023-08-06T12:47:23;17.66;86.56
73875;HTU21D;62209;47.568;7.558;2023-08-06T13:02:30;16.65;89.26
73875;HTU21D;62209;47.568;7.558;2023-08-06T13:17:36;17.83;88.80
73875;HTU21D;62209;47.568;7.558;2023-08-06T13:32:43;19.83;79.16
73875;HTU21D;62209;47.568;7.558;2023-08-06T13:47:49;19.02;77.75
73875;HTU21D;62209;47.568;7.558;2023-08-06T14:02:55;18.51;81.75
73875;HTU21D;62209;47.568;7.558;2023-08-06T14:18:02;17.73;83.20
73875;HTU21D;62209;47.568;7.558;2023-08-06T14:33:08;19.95;80.78
73875;HTU21D;62209;47.568;7.558;2023-08-06T14:48:31;17.66;82.23
73875;HTU21D;62209;47.568;7.558;2023-08-06T15:03:37;18.36;82.13
73875;HTU21D;62209;47.568;7.558;2023-08-06T15:18:44;17.68;83.61
73875;HTU21D;62209;47.568;7.558;2023-08-06T15:33:50;17.56;83.36
73875;HTU21D;62209;47.568;7.558;2023-08-06T15:48:58;17.47;82.81
73875;HTU21D;62209;47.568;7.558;2023-08-06T16:04:05;17.43;81.61
73875;HTU21D;62209;47.568;7.558;2023-08-06T16:19:11;18.79;76.67
73875;HTU21D;62209;47.568;7.558;2023-08-06T16:34:18;18.11;82.78
73875;HTU21D;62209;47.568;7.558;2023-08-06T16:49:24;17.01;87.95
73875;HTU21D;62209;47.568;7.558;2023-08-06T17:04:31;16.63;90.69
73875;HTU21D;62209;47.568;7.558;2023-08-06T17:19:37;16.94;86.22
73875;HTU21D;62209;47.568;7.558;2023-08-06T17:34:43;16.98;86.19
73875;HTU21D;62209;47.568;7.558;2023-08-06T17:49:49;17.14;87.44
73875;HTU21D;62209;47.568;7.558;2023-08-06T18:04:56;16.20;89.25
73875;HTU21D;62209;47.568;7.558;2023-08-06T18:20:02;15.73;91.79
73875;HTU21D;62209;47.568;7.558;2023-08-06T18:35:09;15.44;91.28
73875;HTU21D;62209;47.568;7.558;2023-08-06T18:50:16;14.82;92.07
73875;HTU21D;62209;47.568;7.558;2023-08-06T19:05:22;14.38;93.32
73875;HTU21D;62209;47.568;7.558;2023-08-06T19:20:31;13.97;94.29
73875;HTU21D;62209;47.568;7.558;2023-08-06T19:35:46;13.92;94.33
73875;HTU21D;62209;47.568;7.558;2023-08-06T19:50:54;14.34;92.01
73875;HTU21D;62209;47.568;7.558;2023-08-06T20:06:05;14.82;89.13
73875;HTU21D;62209;47.568;7.558;2023-08-06T20:21:12;14.57;90.07
73875;HTU21D;62209;47.568;7.558;2023-08-06T20:36:18;14.15;90.76
73875;HTU21D;62209;47.568;7.558;2023-08-06T20:51:24;14.07;89.85
73875;HTU21D;62209;47.568;7.558;2023-08-06T21:06:30;13.94;90.41
73875;HTU21D;62209;47.568;7.558;2023-08-06T21:21:36;13.68;91.88
73875;HTU21D;62209;47.568;7.558;2023-08-06T21:36:44;13.61;92.69
73875;HTU21D;62209;47.568;7.558;2023-08-06T21:51:50;13.68;92.44
73875;HTU21D;62209;47.568;7.558;2023-08-06T22:06:58;13.75;92.39
73875;HTU21D;62209;47.568;7.558;2023-08-06T22:22:04;13.83;92.34
73875;HTU21D;62209;47.568;7.558;2023-08-06T22:37:11;13.95;91.72
73875;HTU21D;62209;47.568;7.558;2023-08-06T22:52:17;14.21;90.15
73875;HTU21D;62209;47.568;7.558;2023-08-06T23:07:23;14.24;90.57
73875;HTU21D;62209;47.568;7.558;2023-08-06T23:22:29;14.21;91.45
73875;HTU21D;62209;47.568;7.558;2023-08-06T23:37:36;14.04;92.53
73875;HTU21D;62209;47.568;7.558;2023-08-06T23:52:42;13.95;92.83
